createdAt,value
2019-01-20T00:02:13.875Z,119.67
2019-01-20T00:04:42.663Z,117.97
2019-01-20T00:07:11.348Z,131.73
2019-01-20T00:09:40.036Z,133.43
2019-01-20T00:12:08.824Z,136.23
2019-01-20T00:14:38.435Z,135.20
2019-01-20T00:17:07.121Z,142.33
2019-01-20T00:19:36.113Z,137.13
2019-01-20T00:22:05.304Z,132.73
2019-01-20T00:24:34.102Z,130.03
2019-01-20T00:27:02.990Z,131.23
2019-01-20T00:29:32.804Z,126.93
2019-01-20T00:32:01.489Z,139.67
2019-01-20T00:34:30.384Z,128.90
2019-01-20T00:36:59.171Z,146.27
2019-01-20T00:39:28.060Z,139.63
2019-01-20T00:41:56.954Z,125.13
2019-01-20T00:44:25.745Z,121.47
2019-01-20T00:46:54.635Z,126.27
2019-01-20T00:49:23.423Z,139.93
2019-01-20T00:51:52.314Z,131.37
2019-01-20T00:54:21.204Z,142.13
2019-01-20T00:56:49.994Z,144.80
2019-01-20T00:59:18.883Z,145.73
2019-01-20T01:01:47.673Z,144.53
2019-01-20T01:04:16.464Z,153.73
2019-01-20T01:06:45.132Z,130.30
2019-01-20T01:09:14.130Z,131.37
2019-01-20T01:11:42.945Z,97.30
2019-01-20T01:14:11.806Z,117.83
2019-01-20T01:16:40.617Z,130.83
2019-01-20T01:19:09.406Z,114.13
2019-01-20T01:21:38.320Z,112.17
2019-01-20T01:24:07.191Z,110.87
2019-01-20T01:26:36.854Z,110.47
2019-01-20T01:29:05.890Z,122.87
2019-01-20T01:31:35.087Z,130.10
2019-01-20T01:34:03.878Z,120.17
2019-01-20T01:36:32.664Z,127.27
2019-01-20T01:39:01.350Z,130.57
2019-01-20T01:41:30.241Z,120.40
2019-01-20T01:44:00.141Z,119.27
2019-01-20T01:46:29.152Z,138.47
2019-01-20T01:48:57.938Z,134.03
2019-01-20T01:51:26.729Z,126.23
2019-01-20T01:53:55.517Z,125.03
2019-01-20T01:56:24.409Z,122.03
2019-01-20T01:58:53.197Z,123.40
2019-01-20T02:01:21.973Z,113.77
2019-01-20T02:03:50.778Z,99.87
2019-01-20T02:06:19.564Z,101.87
2019-01-20T02:08:48.353Z,96.57
2019-01-20T02:11:17.141Z,92.30
2019-01-20T02:13:46.030Z,90.60
2019-01-20T02:16:14.703Z,88.83
2019-01-20T02:18:43.512Z,80.93
2019-01-20T02:21:12.398Z,81.47
2019-01-20T02:23:41.188Z,78.03
2019-01-20T02:26:09.977Z,70.83
2019-01-20T02:28:38.764Z,68.73
2019-01-20T02:31:07.658Z,73.00
2019-01-20T02:33:36.445Z,76.50
2019-01-20T02:36:05.317Z,71.00
2019-01-20T02:38:34.124Z,72.00
2019-01-20T02:41:02.915Z,71.07
2019-01-20T02:43:31.600Z,73.10
2019-01-20T02:46:00.398Z,71.87
2019-01-20T02:48:29.179Z,70.57
2019-01-20T02:50:57.968Z,66.23
2019-01-20T02:53:26.655Z,73.13
2019-01-20T02:55:55.443Z,67.00
2019-01-20T02:58:24.230Z,68.23
2019-01-20T03:00:53.019Z,69.87
2019-01-20T03:03:21.809Z,67.63
2019-01-20T03:05:50.700Z,66.87
2019-01-20T03:08:19.492Z,59.70
2019-01-20T03:10:48.381Z,60.77
2019-01-20T03:13:17.065Z,63.17
2019-01-20T03:15:45.959Z,60.30
2019-01-20T03:18:14.849Z,58.33
2019-01-20T03:20:44.567Z,56.77
2019-01-20T03:23:13.455Z,55.03
2019-01-20T03:25:42.244Z,53.77
2019-01-20T03:28:11.028Z,50.90
2019-01-20T03:30:39.821Z,52.97
2019-01-20T03:33:08.629Z,52.83
2019-01-20T03:35:37.396Z,52.63
2019-01-20T03:38:06.291Z,48.53
2019-01-20T03:40:35.078Z,49.73
2019-01-20T03:43:03.970Z,49.20
2019-01-20T03:45:32.755Z,47.43
2019-01-20T03:48:01.554Z,49.87
2019-01-20T03:50:36.740Z,50.73
2019-01-20T03:53:05.676Z,47.70
2019-01-20T03:55:34.465Z,45.83
2019-01-20T03:58:03.149Z,44.00
2019-01-20T04:00:31.939Z,45.30
2019-01-20T04:03:01.735Z,47.60
2019-01-20T04:05:30.440Z,50.97
2019-01-20T04:07:59.229Z,50.87
2019-01-20T04:10:28.017Z,50.37
2019-01-20T04:12:56.704Z,52.90
2019-01-20T04:15:25.697Z,50.47
2019-01-20T04:17:54.488Z,53.57
2019-01-20T04:20:24.813Z,51.87
2019-01-20T04:22:53.703Z,50.20
2019-01-20T04:25:22.595Z,50.97
2019-01-20T04:27:51.382Z,51.23
2019-01-20T04:30:21.065Z,49.50
2019-01-20T04:32:49.935Z,51.90
2019-01-20T04:35:18.691Z,50.73
2019-01-20T04:37:55.147Z,48.37
2019-01-20T04:40:26.799Z,48.23
2019-01-20T04:42:55.583Z,46.00
2019-01-20T04:45:33.076Z,48.13
2019-01-20T04:48:07.612Z,48.07
2019-01-20T04:50:36.494Z,50.43
2019-01-20T04:53:05.370Z,51.57
2019-01-20T04:55:34.071Z,50.37
2019-01-20T04:58:02.962Z,49.50
2019-01-20T05:00:31.750Z,48.80
2019-01-20T05:03:00.440Z,49.40
2019-01-20T05:05:29.229Z,51.13
2019-01-20T05:07:58.016Z,48.60
2019-01-20T05:10:26.806Z,45.53
2019-01-20T05:12:55.809Z,43.20
2019-01-20T05:15:24.701Z,43.27
2019-01-20T05:17:53.582Z,43.33
2019-01-20T05:20:22.470Z,42.10
2019-01-20T05:22:51.365Z,44.03
2019-01-20T05:25:20.681Z,43.70
2019-01-20T05:27:49.793Z,41.30
2019-01-20T05:30:20.315Z,41.77
2019-01-20T05:32:49.056Z,42.77
2019-01-20T05:35:18.070Z,43.73
2019-01-20T05:37:46.962Z,39.63
2019-01-20T05:40:20.336Z,36.33
2019-01-20T05:42:49.256Z,34.10
2019-01-20T05:45:20.397Z,38.67
2019-01-20T05:47:49.286Z,38.90
2019-01-20T05:50:18.075Z,41.63
2019-01-20T05:52:46.964Z,44.50
2019-01-20T05:55:15.957Z,43.13
2019-01-20T05:57:44.654Z,33.07
2019-01-20T06:00:24.996Z,33.17
2019-01-20T06:02:53.793Z,30.17
2019-01-20T06:05:22.481Z,30.03
2019-01-20T06:07:51.143Z,32.47
2019-01-20T06:10:19.956Z,29.17
2019-01-20T06:12:53.853Z,28.23
2019-01-20T06:15:20.884Z,26.80
2019-01-20T06:17:49.703Z,27.93
2019-01-20T06:20:18.578Z,24.80
2019-01-20T06:22:47.366Z,24.97
2019-01-20T06:25:16.172Z,25.80
2019-01-20T06:27:44.960Z,28.67
2019-01-20T06:30:25.529Z,33.47
2019-01-20T06:32:54.315Z,27.63
2019-01-20T06:35:22.966Z,28.23
2019-01-20T06:37:51.788Z,32.93
2019-01-20T06:40:21.316Z,31.23
2019-01-20T06:42:50.084Z,28.63
2019-01-20T06:45:18.866Z,30.37
2019-01-20T06:47:47.562Z,39.20
2019-01-20T06:50:18.403Z,35.17
2019-01-20T06:52:47.098Z,26.03
2019-01-20T06:55:15.870Z,27.37
2019-01-20T06:57:44.570Z,28.83
2019-01-20T07:00:23.420Z,25.03
2019-01-20T07:02:52.490Z,25.70
2019-01-20T07:05:21.251Z,25.77
2019-01-20T07:07:50.262Z,24.90
2019-01-20T07:10:20.077Z,27.47
2019-01-20T07:12:48.967Z,30.67
2019-01-20T07:15:22.223Z,25.63
2019-01-20T07:17:50.946Z,23.53
2019-01-20T07:20:22.337Z,26.40
2019-01-20T07:22:51.185Z,25.10
2019-01-20T07:25:20.079Z,26.40
2019-01-20T07:31:17.662Z,27.77
2019-01-20T07:33:46.449Z,26.47
2019-01-20T07:36:15.240Z,30.00
2019-01-20T07:38:44.030Z,33.47
2019-01-20T07:41:12.905Z,44.30
2019-01-20T07:43:41.809Z,34.40
2019-01-20T07:46:10.599Z,37.10
2019-01-20T07:48:39.363Z,38.67
2019-01-20T07:51:08.161Z,36.13
2019-01-20T07:53:36.863Z,38.60
2019-01-20T07:56:05.657Z,45.00
2019-01-20T07:58:34.547Z,40.67
2019-01-20T08:01:03.317Z,39.43
2019-01-20T08:03:33.054Z,46.43
2019-01-20T08:06:01.936Z,47.87
2019-01-20T08:08:31.002Z,49.60
2019-01-20T08:10:59.924Z,48.27
2019-01-20T08:13:28.609Z,44.90
2019-01-20T08:15:57.271Z,39.57
2019-01-20T08:18:26.190Z,36.93
2019-01-20T08:20:54.873Z,35.40
2019-01-20T08:23:23.538Z,31.03
2019-01-20T08:25:52.274Z,29.40
2019-01-20T08:28:21.241Z,26.10
2019-01-20T08:30:50.123Z,25.90
2019-01-20T08:33:19.027Z,26.77
2019-01-20T08:35:47.811Z,26.67
2019-01-20T08:38:16.971Z,29.30
2019-01-20T08:40:46.005Z,26.33
2019-01-20T08:43:14.897Z,31.57
2019-01-20T08:45:55.474Z,30.10
2019-01-20T08:48:25.562Z,30.93
2019-01-20T08:50:55.140Z,32.33
2019-01-20T08:53:24.082Z,37.93
2019-01-20T08:55:53.079Z,39.70
2019-01-20T08:58:29.953Z,31.90
2019-01-20T09:00:56.901Z,24.07
2019-01-20T09:03:25.588Z,23.83
2019-01-20T09:05:54.395Z,27.83
2019-01-20T09:08:23.270Z,28.70
2019-01-20T09:10:52.054Z,29.03
2019-01-20T09:13:20.943Z,27.13
2019-01-20T09:15:49.738Z,25.80
2019-01-20T09:18:18.935Z,26.53
2019-01-20T09:20:47.684Z,27.77
2019-01-20T09:23:16.622Z,29.50
2019-01-20T09:25:45.403Z,34.53
2019-01-20T09:28:14.093Z,38.97
2019-01-20T09:30:42.894Z,53.13
2019-01-20T09:33:11.874Z,67.87
2019-01-20T09:35:40.968Z,71.83
2019-01-20T09:38:09.760Z,63.67
2019-01-20T09:40:38.648Z,65.90
2019-01-20T09:43:07.437Z,65.17
2019-01-20T09:45:36.643Z,91.40
2019-01-20T09:48:05.410Z,94.63
2019-01-20T09:50:34.314Z,48.27
2019-01-20T09:53:03.199Z,45.23
2019-01-20T09:55:32.196Z,50.97
2019-01-20T09:58:00.867Z,47.50
2019-01-20T10:00:34.517Z,49.93
2019-01-20T10:03:03.259Z,56.80
2019-01-20T10:05:32.168Z,55.87
2019-01-20T10:08:01.160Z,55.37
2019-01-20T10:10:29.954Z,58.87
2019-01-20T10:12:59.352Z,54.50
2019-01-20T10:15:28.145Z,54.80
2019-01-20T10:18:17.172Z,53.07
2019-01-20T10:20:42.412Z,57.03
2019-01-20T10:26:14.291Z,52.07
2019-01-20T10:28:43.491Z,50.77
2019-01-20T10:31:12.794Z,49.10
2019-01-20T10:33:41.789Z,45.83
2019-01-20T10:36:10.782Z,44.30
2019-01-20T10:41:44.820Z,43.70
2019-01-20T10:44:13.619Z,37.73
2019-01-20T10:46:42.596Z,39.27
2019-01-20T10:49:11.367Z,33.10
2019-01-20T10:51:40.274Z,36.63
2019-01-20T10:54:09.166Z,42.37
2019-01-20T10:56:37.852Z,45.70
2019-01-20T10:59:06.743Z,45.07
2019-01-20T11:01:35.649Z,44.17
2019-01-20T11:04:04.425Z,48.03
2019-01-20T11:06:33.214Z,47.87
2019-01-20T11:09:02.007Z,49.03
2019-01-20T11:11:30.689Z,45.83
2019-01-20T11:13:59.704Z,52.03
2019-01-20T11:16:28.447Z,50.13
2019-01-20T11:18:57.542Z,45.80
2019-01-20T11:21:26.357Z,41.77
2019-01-20T11:23:56.840Z,40.23
2019-01-20T11:26:25.570Z,37.60
2019-01-20T11:28:57.451Z,38.93
2019-01-20T11:31:27.825Z,41.27
2019-01-20T11:33:56.751Z,43.30
2019-01-20T11:36:25.543Z,46.37
2019-01-20T11:38:54.330Z,46.60
2019-01-20T11:41:23.222Z,56.27
2019-01-20T11:43:52.010Z,50.60
2019-01-20T11:46:20.800Z,49.80
2019-01-20T11:48:49.908Z,43.13
2019-01-20T11:51:18.682Z,48.03
2019-01-20T11:53:47.476Z,52.53
2019-01-20T11:56:16.381Z,41.73
2019-01-20T11:58:45.153Z,37.80
2019-01-20T12:01:14.480Z,31.47
2019-01-20T12:03:43.455Z,31.17
2019-01-20T12:06:12.237Z,35.30
2019-01-20T12:08:55.669Z,36.23
2019-01-20T12:11:15.652Z,36.60
2019-01-20T12:13:44.544Z,30.27
2019-01-20T12:16:13.229Z,25.83
2019-01-20T12:18:41.915Z,27.27
2019-01-20T12:21:10.681Z,26.97
2019-01-20T12:23:39.365Z,27.83
2019-01-20T12:26:08.013Z,28.90
2019-01-20T12:28:36.743Z,27.80
2019-01-20T12:31:05.422Z,29.97
2019-01-20T12:33:34.109Z,27.07
2019-01-20T12:36:02.891Z,25.90
2019-01-20T12:38:31.611Z,26.20
2019-01-20T12:41:00.247Z,26.47
2019-01-20T12:43:29.022Z,26.20
2019-01-20T12:45:57.772Z,26.33
2019-01-20T12:48:26.564Z,26.20
2019-01-20T12:50:55.455Z,25.17
2019-01-20T12:53:24.346Z,25.43
2019-01-20T12:55:53.342Z,25.20
2019-01-20T12:58:22.102Z,29.30
2019-01-20T13:00:50.815Z,34.40
2019-01-20T13:03:19.479Z,28.33
2019-01-20T13:05:48.261Z,32.20
2019-01-20T13:08:16.951Z,33.83
2019-01-20T13:10:45.642Z,36.27
2019-01-20T13:13:14.428Z,34.83
2019-01-20T13:15:43.109Z,30.77
2019-01-20T13:18:11.821Z,30.77
2019-01-20T13:20:40.599Z,31.80
2019-01-20T13:23:09.297Z,25.77
2019-01-20T13:25:37.958Z,24.33
2019-01-20T13:28:06.980Z,25.67
2019-01-20T13:30:35.664Z,28.07
2019-01-20T13:33:04.454Z,26.17
2019-01-20T13:35:33.223Z,29.00
2019-01-20T13:38:07.415Z,30.20
2019-01-20T13:40:48.309Z,27.93
2019-01-20T13:43:16.989Z,29.93
2019-01-20T13:45:46.523Z,27.37
2019-01-20T13:48:15.313Z,28.60
2019-01-20T13:50:43.975Z,28.80
2019-01-20T13:53:12.789Z,26.43
2019-01-20T13:55:41.550Z,25.30
2019-01-20T13:58:10.246Z,25.40
2019-01-20T14:00:39.053Z,24.13
2019-01-20T14:03:08.250Z,23.77
2019-01-20T14:05:36.939Z,24.07
2019-01-20T14:08:05.706Z,25.37
2019-01-20T14:10:34.537Z,23.63
2019-01-20T14:13:03.179Z,30.10
2019-01-20T14:15:31.885Z,24.23
2019-01-20T14:18:00.688Z,20.83
2019-01-20T14:20:29.468Z,24.97
2019-01-20T14:22:58.136Z,23.63
2019-01-20T14:25:31.328Z,23.37
2019-01-20T14:28:00.236Z,21.73
2019-01-20T14:30:33.609Z,23.67
2019-01-20T14:33:03.174Z,25.43
2019-01-20T14:35:32.337Z,23.37
2019-01-20T14:38:01.023Z,25.93
2019-01-20T14:40:29.894Z,24.60
2019-01-20T14:42:58.804Z,24.83
2019-01-20T14:45:27.603Z,24.77
2019-01-20T14:47:56.587Z,24.93
2019-01-20T14:50:27.631Z,26.53
2019-01-20T14:52:56.522Z,25.43
2019-01-20T14:55:25.490Z,26.57
2019-01-20T14:57:54.301Z,25.27
2019-01-20T15:00:34.635Z,27.27
2019-01-20T15:06:03.085Z,28.10
2019-01-20T15:08:31.757Z,30.93
2019-01-20T15:11:00.415Z,30.17
2019-01-20T15:13:29.224Z,27.77
2019-01-20T15:15:57.967Z,25.93
2019-01-20T15:18:26.637Z,24.70
2019-01-20T15:20:55.356Z,28.93
2019-01-20T15:23:24.058Z,67.87
2019-01-20T15:25:52.725Z,95.43
2019-01-20T15:28:21.492Z,100.30
2019-01-20T15:30:52.575Z,105.10
2019-01-20T15:33:21.229Z,102.43
2019-01-20T15:35:49.923Z,93.80
2019-01-20T15:38:18.602Z,94.47
2019-01-20T15:40:48.206Z,96.50
2019-01-20T15:43:16.890Z,102.77
2019-01-20T15:45:45.606Z,103.53
2019-01-20T15:48:15.215Z,107.43
2019-01-20T15:50:43.917Z,105.97
2019-01-20T15:53:12.577Z,93.77
2019-01-20T15:55:41.279Z,103.43
2019-01-20T15:58:09.933Z,105.67
2019-01-20T16:00:38.586Z,125.70
2019-01-20T16:03:07.291Z,130.93
2019-01-20T16:05:35.965Z,125.50
2019-01-20T16:08:04.730Z,117.27
2019-01-20T16:10:33.518Z,112.03
2019-01-20T16:13:02.187Z,132.77
2019-01-20T16:15:33.614Z,153.47
2019-01-20T16:18:02.450Z,239.67
2019-01-20T16:20:31.337Z,277.00
2019-01-20T16:23:00.135Z,223.03
2019-01-20T16:25:31.113Z,198.23
2019-01-20T16:27:59.955Z,161.40
2019-01-20T16:30:31.003Z,156.13
2019-01-20T16:32:59.875Z,171.37
2019-01-20T16:35:28.554Z,169.27
2019-01-20T16:37:58.372Z,166.83
2019-01-20T16:40:27.284Z,127.57
2019-01-20T16:42:56.072Z,104.03
2019-01-20T16:45:35.284Z,160.87
2019-01-20T16:48:04.884Z,168.60
2019-01-20T16:50:33.602Z,142.00
2019-01-20T16:53:13.604Z,121.27
2019-01-20T16:55:42.381Z,95.50
2019-01-20T16:58:11.231Z,89.60
2019-01-20T17:00:41.410Z,80.23
2019-01-20T17:06:17.633Z,70.27
2019-01-20T17:08:47.218Z,71.97
2019-01-20T17:11:16.030Z,68.07
2019-01-20T17:13:54.686Z,80.13
2019-01-20T17:16:24.007Z,82.87
2019-01-20T17:18:52.740Z,82.80
2019-01-20T17:21:21.504Z,81.03
2019-01-20T17:23:50.217Z,84.93
2019-01-20T17:26:18.903Z,88.07
2019-01-20T17:28:47.667Z,79.00
2019-01-20T17:31:16.480Z,79.40
2019-01-20T17:33:45.176Z,76.20
2019-01-20T17:36:14.097Z,68.60
2019-01-20T17:38:42.821Z,64.17
2019-01-20T17:41:11.513Z,82.97
2019-01-20T17:43:40.321Z,91.83
2019-01-20T17:46:09.214Z,98.00
2019-01-20T17:48:38.005Z,98.20
2019-01-20T17:51:06.790Z,108.50
2019-01-20T17:53:35.565Z,106.43
2019-01-20T17:56:04.370Z,99.60
2019-01-20T17:58:33.156Z,99.73
2019-01-20T18:01:02.972Z,107.17
2019-01-20T18:03:31.773Z,103.37
2019-01-20T18:06:00.549Z,100.23
2019-01-20T18:08:29.337Z,98.20
2019-01-20T18:10:58.216Z,100.40
2019-01-20T18:13:27.118Z,100.43
2019-01-20T18:15:55.911Z,106.03
2019-01-20T18:18:24.801Z,103.50
2019-01-20T18:20:53.589Z,109.97
2019-01-20T18:23:22.525Z,93.93
2019-01-20T18:25:52.004Z,91.00
2019-01-20T18:31:48.546Z,84.53
2019-01-20T18:34:17.335Z,89.73
2019-01-20T18:36:46.125Z,88.60
2019-01-20T18:39:14.813Z,95.00
2019-01-20T18:41:43.599Z,91.87
2019-01-20T18:44:12.558Z,89.30
2019-01-20T18:46:41.386Z,85.00
2019-01-20T18:49:10.305Z,79.10
2019-01-20T18:51:39.041Z,80.23
2019-01-20T18:54:07.751Z,85.80
2019-01-20T18:56:36.537Z,83.37
2019-01-20T18:59:05.485Z,86.90
2019-01-20T19:01:34.193Z,86.67
2019-01-20T19:04:03.200Z,86.27
2019-01-20T19:06:32.103Z,88.40
2019-01-20T19:09:00.999Z,118.77
2019-01-20T19:11:29.786Z,201.53
2019-01-20T19:13:58.572Z,160.23
2019-01-20T19:16:27.258Z,157.87
2019-01-20T19:18:56.021Z,169.67
2019-01-20T19:21:24.738Z,184.23
2019-01-20T19:23:53.832Z,178.10
2019-01-20T19:26:22.822Z,204.30
2019-01-20T19:28:51.612Z,207.40
2019-01-20T19:31:20.400Z,203.07
2019-01-20T19:33:49.511Z,222.67
2019-01-20T19:36:18.389Z,220.50
2019-01-20T19:38:47.178Z,214.00
2019-01-20T19:41:15.967Z,214.97
2019-01-20T19:43:44.755Z,212.97
2019-01-20T19:46:16.406Z,216.77
2019-01-20T19:48:44.085Z,199.23
2019-01-20T19:51:12.759Z,200.07
2019-01-20T19:53:41.552Z,201.50
2019-01-20T19:56:10.323Z,201.13
2019-01-20T19:58:40.152Z,207.37
2019-01-20T20:01:08.920Z,194.43
2019-01-20T20:03:37.729Z,139.93
2019-01-20T20:06:06.415Z,163.57
2019-01-20T20:08:35.307Z,184.63
2019-01-20T20:11:04.311Z,144.13
2019-01-20T20:13:33.065Z,182.53
2019-01-20T20:16:01.777Z,197.33
2019-01-20T20:18:30.564Z,243.63
2019-01-20T20:20:59.354Z,142.97
2019-01-20T20:23:28.144Z,121.07
2019-01-20T20:25:57.038Z,139.43
2019-01-20T20:28:25.927Z,222.63
2019-01-20T20:30:54.720Z,220.57
2019-01-20T20:33:23.505Z,217.83
2019-01-20T20:35:52.189Z,228.50
2019-01-20T20:38:20.980Z,215.47
2019-01-20T20:40:50.278Z,173.10
2019-01-20T20:43:31.262Z,168.00
2019-01-20T20:46:01.933Z,154.00
2019-01-20T20:48:31.174Z,132.80
2019-01-20T20:51:00.545Z,138.97
2019-01-20T20:56:25.241Z,135.40
2019-01-20T20:58:54.205Z,138.40
2019-01-20T21:01:24.099Z,98.33
2019-01-20T21:03:52.779Z,88.77
2019-01-20T21:06:21.707Z,139.50
2019-01-20T21:08:50.582Z,146.47
2019-01-20T21:11:19.265Z,144.70
2019-01-20T21:13:48.055Z,149.20
2019-01-20T21:16:17.064Z,130.30
2019-01-20T21:18:46.383Z,114.57
2019-01-20T21:21:26.523Z,114.27
2019-01-20T21:23:52.939Z,99.37
2019-01-20T21:26:21.829Z,84.27
2019-01-20T21:28:50.624Z,71.20
2019-01-20T21:31:19.408Z,72.90
2019-01-20T21:33:48.197Z,86.97
2019-01-20T21:36:16.986Z,110.90
2019-01-20T21:38:45.978Z,80.97
2019-01-20T21:41:14.767Z,148.10
2019-01-20T21:43:43.534Z,161.03
2019-01-20T21:46:13.043Z,155.73
2019-01-20T21:48:41.836Z,147.53
2019-01-20T21:51:11.758Z,131.23
2019-01-20T21:53:40.982Z,106.13
2019-01-20T21:56:09.962Z,118.67
2019-01-20T21:58:38.756Z,86.27
2019-01-20T22:01:07.660Z,82.93
2019-01-20T22:03:36.617Z,84.97
2019-01-20T22:06:05.424Z,78.53
2019-01-20T22:08:34.423Z,76.63
2019-01-20T22:11:03.316Z,77.23
2019-01-20T22:13:32.508Z,77.97
2019-01-20T22:16:03.013Z,82.53
2019-01-20T22:18:32.348Z,84.07
2019-01-20T22:21:04.859Z,92.50
2019-01-20T22:23:33.601Z,105.47
2019-01-20T22:26:02.511Z,75.17
2019-01-20T22:28:31.255Z,87.40
2019-01-20T22:31:00.592Z,61.13
2019-01-20T22:33:29.568Z,57.37
2019-01-20T22:35:58.577Z,55.80
2019-01-20T22:38:27.567Z,58.00
2019-01-20T22:40:56.647Z,70.97
2019-01-20T22:43:25.898Z,70.80
2019-01-20T22:45:54.543Z,64.03
2019-01-20T22:48:24.429Z,63.60
2019-01-20T22:50:53.858Z,65.63
2019-01-20T22:53:23.071Z,55.37
2019-01-20T22:55:52.493Z,59.40
2019-01-20T22:58:21.956Z,69.90
2019-01-20T23:00:53.567Z,67.67
2019-01-20T23:03:22.376Z,61.83
2019-01-20T23:05:51.486Z,62.43
2019-01-20T23:08:20.203Z,46.53
2019-01-20T23:10:49.949Z,47.07
2019-01-20T23:13:19.418Z,52.50
2019-01-20T23:15:49.253Z,51.70
2019-01-20T23:18:18.014Z,47.50
2019-01-20T23:20:46.786Z,44.37
2019-01-20T23:23:16.009Z,49.17
2019-01-20T23:25:44.792Z,45.67
2019-01-20T23:28:13.789Z,45.07
2019-01-20T23:30:42.790Z,36.17
2019-01-20T23:33:11.542Z,33.93
2019-01-20T23:35:41.389Z,25.47
2019-01-20T23:38:10.235Z,26.67
2019-01-20T23:40:39.938Z,26.63
2019-01-20T23:43:09.625Z,23.87
2019-01-20T23:45:38.613Z,25.47
2019-01-20T23:48:11.841Z,27.30
2019-01-20T23:50:40.980Z,27.33
2019-01-20T23:53:09.762Z,26.80
2019-01-20T23:55:38.769Z,27.33
2019-01-20T23:58:07.435Z,26.50
